Time;durP1;ratioP1;P1;durP2;ratioP2;P2;SDS_P1;SDS_P2;PMS_P1;PMS_P2;Temp;Humidity;BMP_temperature;BMP_pressure;BME280_temperature;BME280_humidity;BME280_pressure;Samples;Min_cycle;Max_cycle;Signal;HPM_P1;HPM_P2
2023/01/26 00:00:49;;;;;;;;;;;;;;;3.44;78.17;95553.22;5033136;28;1036;-52
2023/01/26 00:03:15;;;;;;;;;;;;;;;3.38;78.30;95550.13;5033060;28;1045;-51
2023/01/26 00:05:41;;;;;;;;;;;;;;;3.42;77.38;95551.63;5032937;28;1898;-52
2023/01/26 00:08:07;;;;;;;;;;;;;;;3.42;77.85;95547.19;5033025;28;1050;-52
2023/01/26 00:10:40;;;;;;;;;;;;;;;3.36;78.29;95542.34;5032981;28;1033;-52
2023/01/26 00:13:07;;;;;;;;;;;;;;;3.28;78.99;95545.53;5033073;28;1017;-52
2023/01/26 00:15:34;;;;;;;;;;;;;;;3.32;79.21;95547.00;5033151;28;1049;-52
2023/01/26 00:18:01;;;;;;;;;;;;;;;3.35;79.60;95545.09;5033207;28;1060;-52
2023/01/26 00:20:28;;;;;;;;;;;;;;;3.41;79.46;95542.84;5033011;28;1036;-52
2023/01/26 00:22:54;;;;;;;;;;;;;;;3.49;79.73;95552.88;5033877;28;986;-52
2023/01/26 00:25:20;;;;;;;;;;;;;;;3.59;79.63;95547.81;5035490;28;1964;-52
2023/01/26 00:27:46;;;;;;;;;;;;;;;3.65;78.73;95544.72;5036591;28;1093;-52
2023/01/26 00:30:13;;;;;;;;;;;;;;;3.63;79.15;95531.59;5036846;28;1044;-52
2023/01/26 00:32:39;;;;;;;;;;;;;;;3.64;79.38;95524.50;5036591;28;1313;-52
2023/01/26 00:35:05;;;;;;;;;;;;;;;3.68;80.70;95528.59;5036373;28;1150;-52
2023/01/26 00:37:31;;;;;;;;;;;;;;;3.64;80.75;95525.38;5036391;28;1042;-52
2023/01/26 00:39:57;;;;;;;;;;;;;;;3.67;80.79;95532.22;5035264;28;1046;-52
2023/01/26 00:42:23;;;;;;;;;;;;;;;3.65;79.90;95521.75;5036327;28;1060;-52
2023/01/26 00:44:50;;;;;;;;;;;;;;;3.64;81.78;95524.50;5036514;28;1991;-52
2023/01/26 00:47:16;;;;;;;;;;;;;;;3.63;81.30;95523.66;5036547;28;1212;-52
2023/01/26 00:49:43;;;;;;;;;;;;;;;3.56;82.54;95516.28;5036328;28;1548;-52
2023/01/26 00:52:10;;;;;;;;;;;;;;;3.54;82.88;95518.19;5035956;28;1109;-52
2023/01/26 00:54:36;;;;;;;;;;;;;;;3.44;82.51;95516.19;5036227;28;973;-52
2023/01/26 00:57:02;;;;;;;;;;;;;;;3.49;82.73;95513.22;5034946;28;1513;-52
2023/01/26 00:59:31;;;;;;;;;;;;;;;3.58;81.65;95511.72;5036049;28;1049;-52
2023/01/26 01:01:58;;;;;;;;;;;;;;;3.52;82.50;95507.72;5036048;28;1092;-52
2023/01/26 01:04:24;;;;;;;;;;;;;;;3.50;82.68;95505.19;5035850;28;1979;-51
2023/01/26 01:06:50;;;;;;;;;;;;;;;3.48;83.68;95511.53;5035948;28;1046;-51
2023/01/26 01:09:16;;;;;;;;;;;;;;;3.50;83.41;95517.56;5035930;28;1049;-52
2023/01/26 01:11:44;;;;;;;;;;;;;;;3.45;83.53;95517.03;5035877;28;1006;-52
2023/01/26 01:14:11;;;;;;;;;;;;;;;3.40;84.55;95504.16;5035796;28;1108;-52
2023/01/26 01:16:38;;;;;;;;;;;;;;;3.40;84.24;95512.09;5035720;28;1093;-52
2023/01/26 01:19:04;;;;;;;;;;;;;;;3.38;83.83;95505.19;5035890;28;969;-52
2023/01/26 01:21:31;;;;;;;;;;;;;;;3.41;83.66;95497.06;5035616;28;1065;-52
2023/01/26 01:23:58;;;;;;;;;;;;;;;3.38;84.34;95499.91;5035579;28;1898;-52
2023/01/26 01:26:24;;;;;;;;;;;;;;;3.34;85.18;95496.66;5035448;28;1028;-52
2023/01/26 01:28:52;;;;;;;;;;;;;;;3.32;84.65;95495.94;5035806;28;1048;-52
2023/01/26 01:31:18;;;;;;;;;;;;;;;3.35;84.32;95494.84;5035394;28;1658;-52
2023/01/26 01:33:44;;;;;;;;;;;;;;;3.25;86.08;95486.75;5034933;28;1240;-52
2023/01/26 01:36:12;;;;;;;;;;;;;;;3.26;85.67;95486.63;5035397;28;1058;-52
2023/01/26 01:38:38;;;;;;;;;;;;;;;3.23;86.08;95483.38;5035291;28;989;-52
2023/01/26 01:41:04;;;;;;;;;;;;;;;3.20;85.94;95475.63;5035273;28;1077;-52
2023/01/26 01:43:30;;;;;;;;;;;;;;;3.20;86.54;95478.28;5035375;28;986;-52
2023/01/26 01:45:58;;;;;;;;;;;;;;;3.17;85.71;95478.50;5035315;28;1918;-52
2023/01/26 01:48:29;;;;;;;;;;;;;;;3.21;86.04;95475.53;5035270;28;1032;-52
2023/01/26 01:50:59;;;;;;;;;;;;;;;3.21;86.25;95472.06;5035236;28;962;-52
2023/01/26 01:53:28;;;;;;;;;;;;;;;3.19;86.54;95477.44;5034973;28;1036;-52
2023/01/26 01:55:56;;;;;;;;;;;;;;;3.28;85.26;95474.16;5035222;28;1042;-52
2023/01/26 01:58:23;;;;;;;;;;;;;;;3.28;84.76;95457.44;5035056;28;1052;-52
2023/01/26 02:00:49;;;;;;;;;;;;;;;3.12;86.16;95458.53;5034924;28;1054;-52
2023/01/26 02:03:19;;;;;;;;;;;;;;;3.13;85.71;95456.75;5034901;28;1094;-52
2023/01/26 02:06:07;;;;;;;;;;;;;;;3.15;85.36;95452.19;5034830;28;1911;-52
2023/01/26 02:08:44;;;;;;;;;;;;;;;3.17;85.54;95452.94;5034950;28;1009;-52
2023/01/26 02:11:19;;;;;;;;;;;;;;;3.22;86.16;95455.22;5034897;28;965;-52
2023/01/26 02:13:46;;;;;;;;;;;;;;;3.18;85.96;95449.31;5034857;28;1044;-52
2023/01/26 02:16:12;;;;;;;;;;;;;;;3.17;86.02;95441.50;5034627;28;1049;-52
2023/01/26 02:18:38;;;;;;;;;;;;;;;3.16;86.22;95440.66;5034396;28;1100;-52
2023/01/26 02:21:06;;;;;;;;;;;;;;;3.08;86.06;95432.44;5034764;28;1040;-52
2023/01/26 02:23:41;;;;;;;;;;;;;;;2.94;85.79;95433.41;5034591;28;1118;-52
2023/01/26 02:26:10;;;;;;;;;;;;;;;2.82;86.57;95435.09;5034487;28;1902;-52
2023/01/26 02:28:37;;;;;;;;;;;;;;;2.90;87.09;95424.88;5034438;28;958;-52
2023/01/26 02:31:04;;;;;;;;;;;;;;;2.91;87.52;95421.25;5034309;28;961;-52
2023/01/26 02:33:31;;;;;;;;;;;;;;;2.98;87.79;95419.03;5033940;28;1545;-52
2023/01/26 02:35:58;;;;;;;;;;;;;;;2.95;87.40;95413.13;5034530;28;961;-52
2023/01/26 02:38:26;;;;;;;;;;;;;;;3.02;85.45;95417.03;5034269;28;1214;-52
2023/01/26 02:40:53;;;;;;;;;;;;;;;3.07;85.08;95406.97;5034142;28;1050;-52
2023/01/26 02:43:20;;;;;;;;;;;;;;;3.03;84.35;95403.69;5034147;28;1037;-52
2023/01/26 02:45:46;;;;;;;;;;;;;;;3.04;85.19;95399.28;5033271;28;1977;-52
2023/01/26 02:48:12;;;;;;;;;;;;;;;3.03;85.51;95410.78;5034082;28;1017;-52
2023/01/26 02:50:38;;;;;;;;;;;;;;;2.89;84.73;95401.19;5034058;28;990;-52
2023/01/26 02:53:04;;;;;;;;;;;;;;;2.80;86.01;95399.19;5033995;28;1034;-52
2023/01/26 02:55:30;;;;;;;;;;;;;;;2.68;85.59;95393.81;5033959;28;1037;-52
2023/01/26 02:58:00;;;;;;;;;;;;;;;2.72;85.90;95394.47;5033914;28;1046;-52
2023/01/26 03:00:29;;;;;;;;;;;;;;;2.67;86.17;95386.00;5032596;28;1057;-51
2023/01/26 03:02:56;;;;;;;;;;;;;;;2.57;85.80;95395.53;5033983;28;970;-52
2023/01/26 03:05:23;;;;;;;;;;;;;;;2.56;86.12;95383.25;5033597;28;1910;-52
2023/01/26 03:07:49;;;;;;;;;;;;;;;2.50;86.41;95382.75;5033882;28;985;-52
2023/01/26 03:10:15;;;;;;;;;;;;;;;2.43;86.71;95375.34;5033772;28;994;-52
2023/01/26 03:12:41;;;;;;;;;;;;;;;2.43;87.41;95385.91;5033564;28;1097;-52
2023/01/26 03:27:25;;;;;;;;;;;;;;;2.45;86.62;95382.22;5033625;28;1022;-52
2023/01/26 03:28:59;;;;;;;;;;;;;;;2.31;87.24;95359.41;5033459;28;1093;-52
2023/01/26 03:31:25;;;;;;;;;;;;;;;2.39;86.47;95358.03;5033306;28;1537;-52
2023/01/26 03:33:51;;;;;;;;;;;;;;;2.50;86.79;95361.66;5032971;28;1134;-52
2023/01/26 03:36:17;;;;;;;;;;;;;;;2.35;85.48;95346.84;5033588;28;1044;-52
2023/01/26 03:38:43;;;;;;;;;;;;;;;2.34;86.60;95342.53;5033319;28;1044;-52
2023/01/26 03:57:37;;;;;;;;;;;;;;;2.05;87.52;95319.00;5035354;28;1120;-52
2023/01/26 04:00:03;;;;;;;;;;;;;;;2.02;86.91;95318.38;5037314;28;1050;-53
2023/01/26 04:10:47;;;;;;;;;;;;;;;2.24;86.48;95320.34;5036989;28;1038;-53
2023/01/26 04:21:34;;;;;;;;;;;;;;;2.07;87.47;95318.91;5036873;28;1036;-52
2023/01/26 04:24:08;;;;;;;;;;;;;;;2.08;87.63;95326.69;5036696;28;1985;-52
2023/01/26 04:26:35;;;;;;;;;;;;;;;2.05;87.51;95319.00;5036881;28;1239;-52
2023/01/26 04:29:03;;;;;;;;;;;;;;;2.00;87.22;95317.63;5036841;28;1072;-52
2023/01/26 04:31:29;;;;;;;;;;;;;;;2.04;87.89;95319.94;5036493;28;1347;-51
2023/01/26 04:33:55;;;;;;;;;;;;;;;1.99;88.32;95316.78;5036460;28;1121;-52
2023/01/26 04:36:21;;;;;;;;;;;;;;;2.05;87.85;95313.75;5036517;28;962;-52
2023/01/26 04:38:48;;;;;;;;;;;;;;;2.12;87.24;95317.63;5036458;28;1053;-52
2023/01/26 04:41:14;;;;;;;;;;;;;;;2.12;86.58;95317.63;5036479;28;1061;-52
2023/01/26 04:43:40;;;;;;;;;;;;;;;2.10;85.72;95314.25;5036328;28;1001;-52
2023/01/26 04:46:07;;;;;;;;;;;;;;;2.30;86.85;95319.97;5036407;28;1906;-52
2023/01/26 04:48:33;;;;;;;;;;;;;;;2.41;85.65;95304.22;5036306;28;1025;-52
2023/01/26 04:51:00;;;;;;;;;;;;;;;2.45;86.21;95318.88;5036166;28;1132;-51
2023/01/26 04:53:27;;;;;;;;;;;;;;;2.37;85.84;95313.28;5036116;28;1116;-52
2023/01/26 04:55:54;;;;;;;;;;;;;;;2.22;85.00;95317.00;5036392;28;1854;-52
2023/01/26 04:58:20;;;;;;;;;;;;;;;2.21;86.13;95310.03;5036061;28;1080;-52
2023/01/26 05:00:50;;;;;;;;;;;;;;;2.24;86.81;95315.09;5036034;28;1077;-52
2023/01/26 05:03:16;;;;;;;;;;;;;;;2.31;86.92;95311.06;5036011;28;1024;-52
2023/01/26 05:05:42;;;;;;;;;;;;;;;2.40;86.62;95310.44;5034671;28;1906;-52
2023/01/26 05:08:08;;;;;;;;;;;;;;;2.40;87.83;95305.16;5034499;28;997;-52
2023/01/26 05:10:34;;;;;;;;;;;;;;;2.34;87.94;95302.97;5035711;28;1029;-52
2023/01/26 05:13:00;;;;;;;;;;;;;;;2.33;87.99;95301.25;5034681;28;1121;-52
2023/01/26 05:15:26;;;;;;;;;;;;;;;2.33;88.61;95307.41;5035741;28;1033;-52
2023/01/26 05:17:52;;;;;;;;;;;;;;;2.31;89.19;95305.78;5035885;28;1052;-52
2023/01/26 05:20:18;;;;;;;;;;;;;;;2.31;88.19;95300.53;5035659;28;1041;-52
2023/01/26 05:22:44;;;;;;;;;;;;;;;2.27;88.06;95304.34;5035658;28;1598;-52
2023/01/26 05:25:10;;;;;;;;;;;;;;;2.33;87.82;95296.84;5035841;28;1985;-51
2023/01/26 05:27:36;;;;;;;;;;;;;;;2.34;88.12;95310.88;5035498;28;1104;-52
2023/01/26 05:30:02;;;;;;;;;;;;;;;2.32;86.93;95308.34;5035712;28;1021;-52
2023/01/26 05:32:29;;;;;;;;;;;;;;;2.35;88.32;95312.53;5034335;28;1347;-52
2023/01/26 05:34:56;;;;;;;;;;;;;;;2.33;88.36;95311.81;5035267;28;1229;-52
2023/01/26 05:37:25;;;;;;;;;;;;;;;2.22;89.22;95303.78;5035520;28;1037;-52
2023/01/26 05:39:51;;;;;;;;;;;;;;;2.03;89.80;95309.50;5035318;28;1105;-52
2023/01/26 05:42:18;;;;;;;;;;;;;;;1.88;90.62;95303.50;5035377;28;1037;-52
2023/01/26 05:44:44;;;;;;;;;;;;;;;1.80;91.28;95301.34;5035308;28;1991;-52
2023/01/26 05:47:10;;;;;;;;;;;;;;;1.82;90.78;95302.13;5035228;28;1090;-51
2023/01/26 05:49:41;;;;;;;;;;;;;;;1.81;90.96;95299.59;5035067;28;1041;-52
2023/01/26 05:52:09;;;;;;;;;;;;;;;1.89;90.83;95300.75;5035434;28;1057;-51
2023/01/26 05:54:35;;;;;;;;;;;;;;;1.89;90.52;95305.19;5035204;28;1001;-52
2023/01/26 05:57:02;;;;;;;;;;;;;;;1.92;90.90;95297.06;5034998;28;1085;-51
2023/01/26 05:59:28;;;;;;;;;;;;;;;1.93;90.28;95296.94;5035012;28;1029;-51
2023/01/26 06:01:57;;;;;;;;;;;;;;;1.93;90.62;95298.75;5035006;28;970;-51
2023/01/26 06:04:24;;;;;;;;;;;;;;;2.09;90.69;95291.47;5034693;28;2291;-51
2023/01/26 06:06:53;;;;;;;;;;;;;;;2.11;89.88;95291.38;5035083;28;1010;-51
2023/01/26 06:09:19;;;;;;;;;;;;;;;2.15;89.73;95295.47;5034449;28;1402;-51
2023/01/26 06:11:46;;;;;;;;;;;;;;;2.15;89.79;95298.97;5034706;28;1022;-52
2023/01/26 06:14:12;;;;;;;;;;;;;;;2.23;89.27;95297.59;5034838;28;1017;-50
2023/01/26 06:16:38;;;;;;;;;;;;;;;2.27;88.44;95302.53;5034570;28;1037;-51
2023/01/26 06:19:05;;;;;;;;;;;;;;;2.13;88.58;95308.78;5034602;28;993;-51
2023/01/26 06:21:31;;;;;;;;;;;;;;;2.00;88.41;95307.09;5034705;28;1064;-51
2023/01/26 06:23:57;;;;;;;;;;;;;;;2.06;87.80;95307.50;5033560;28;1026;-51
2023/01/26 06:26:24;;;;;;;;;;;;;;;2.01;87.81;95307.00;5034284;28;1914;-52
2023/01/26 06:28:50;;;;;;;;;;;;;;;2.06;88.26;95299.59;5034566;28;977;-52
2023/01/26 06:31:17;;;;;;;;;;;;;;;2.08;88.89;95295.03;5034308;28;1633;-52
2023/01/26 06:33:43;;;;;;;;;;;;;;;2.06;89.09;95290.84;5034062;28;1248;-52
2023/01/26 06:36:10;;;;;;;;;;;;;;;2.00;88.73;95291.28;5034569;28;962;-52
2023/01/26 06:38:37;;;;;;;;;;;;;;;2.05;88.53;95290.00;5034342;28;997;-51
2023/01/26 06:41:04;;;;;;;;;;;;;;;2.02;87.56;95297.28;5034207;28;1082;-52
2023/01/26 06:43:31;;;;;;;;;;;;;;;1.74;87.96;95292.06;5034076;28;1150;-52
2023/01/26 06:45:57;;;;;;;;;;;;;;;1.54;87.44;95296.06;5034057;28;1930;-52
2023/01/26 06:48:24;;;;;;;;;;;;;;;1.32;88.73;95285.28;5033932;28;1081;-51
2023/01/26 06:50:50;;;;;;;;;;;;;;;1.30;89.32;95290.63;5034052;28;1108;-52
2023/01/26 06:53:29;;;;;;;;;;;;;;;1.27;90.12;95288.22;5034131;28;1040;-52
2023/01/26 06:55:55;;;;;;;;;;;;;;;1.43;90.49;95292.47;5033952;28;1108;-52
2023/01/26 06:58:21;;;;;;;;;;;;;;;1.64;89.66;95296.28;5033887;28;1021;-52
2023/01/26 07:00:47;;;;;;;;;;;;;;;1.73;88.34;95289.56;5033809;28;1057;-52
2023/01/26 07:03:13;;;;;;;;;;;;;;;1.76;88.18;95294.63;5034061;28;1056;-52
2023/01/26 07:05:39;;;;;;;;;;;;;;;1.74;87.80;95297.34;5033647;28;1989;-52
2023/01/26 07:08:07;;;;;;;;;;;;;;;1.72;86.70;95296.59;5032742;28;1033;-52
2023/01/26 07:10:36;;;;;;;;;;;;;;;1.57;86.98;95289.75;5033721;28;1013;-51
2023/01/26 07:13:03;;;;;;;;;;;;;;;1.44;87.32;95291.50;5033719;28;1001;-52
2023/01/26 07:15:29;;;;;;;;;;;;;;;1.34;88.05;95297.38;5033492;28;1032;-52
2023/01/26 07:17:55;;;;;;;;;;;;;;;1.36;88.75;95298.13;5033606;28;1030;-50
2023/01/26 07:20:22;;;;;;;;;;;;;;;1.45;88.00;95301.13;5033464;28;1034;-52
2023/01/26 07:22:48;;;;;;;;;;;;;;;1.45;87.71;95301.94;5033686;28;1022;-53
2023/01/26 07:25:15;;;;;;;;;;;;;;;1.41;87.77;95297.00;5033557;28;1910;-52
2023/01/26 07:27:41;;;;;;;;;;;;;;;1.36;88.06;95292.84;5033467;28;1021;-52
2023/01/26 07:30:07;;;;;;;;;;;;;;;1.42;87.45;95294.25;5033428;28;962;-52
2023/01/26 07:32:33;;;;;;;;;;;;;;;1.43;86.57;95287.19;5032823;28;1245;-52
2023/01/26 07:35:00;;;;;;;;;;;;;;;1.36;86.71;95297.28;5033163;28;1182;-52
2023/01/26 07:37:26;;;;;;;;;;;;;;;1.31;88.92;95302.88;5033469;28;1024;-53
2023/01/26 07:39:52;;;;;;;;;;;;;;;1.45;88.66;95303.75;5033413;28;1065;-52
2023/01/26 07:42:18;;;;;;;;;;;;;;;1.55;88.22;95299.53;5033288;28;1076;-53
2023/01/26 07:44:44;;;;;;;;;;;;;;;1.60;87.81;95308.00;5033113;28;1910;-53
2023/01/26 07:47:10;;;;;;;;;;;;;;;1.65;88.11;95298.00;5033476;28;1046;-53
2023/01/26 07:49:36;;;;;;;;;;;;;;;1.90;87.47;95296.34;5033095;28;1041;-51
2023/01/26 07:52:04;;;;;;;;;;;;;;;2.05;85.52;95295.28;5033291;28;1033;-53
2023/01/26 07:54:30;;;;;;;;;;;;;;;1.95;85.37;95289.78;5033135;28;910;-53
2023/01/26 07:56:56;;;;;;;;;;;;;;;1.79;84.57;95283.88;5033175;28;1042;-53
2023/01/26 07:59:22;;;;;;;;;;;;;;;1.84;85.76;95286.19;5032954;28;1062;-53
2023/01/26 08:01:49;;;;;;;;;;;;;;;1.89;85.59;95284.91;5033032;28;1066;-53
2023/01/26 08:04:15;;;;;;;;;;;;;;;1.94;85.81;95282.81;5031893;28;1987;-53
2023/01/26 08:06:41;;;;;;;;;;;;;;;1.95;85.20;95275.75;5033132;28;1016;-53
2023/01/26 08:09:07;;;;;;;;;;;;;;;2.06;85.17;95277.66;5033090;28;1124;-53
2023/01/26 08:11:33;;;;;;;;;;;;;;;2.24;84.69;95267.59;5033079;28;1001;-53
2023/01/26 08:13:59;;;;;;;;;;;;;;;2.23;83.97;95273.84;5032983;28;1021;-53
2023/01/26 08:16:25;;;;;;;;;;;;;;;2.31;84.04;95274.97;5033127;28;1101;-53
2023/01/26 08:18:52;;;;;;;;;;;;;;;2.32;83.71;95270.56;5033193;28;1040;-53
2023/01/26 08:21:18;;;;;;;;;;;;;;;2.19;83.46;95281.13;5033060;28;1321;-53
2023/01/26 08:23:49;;;;;;;;;;;;;;;2.27;84.16;95273.50;5031901;28;1054;-53
2023/01/26 08:26:16;;;;;;;;;;;;;;;2.28;82.93;95280.47;5032949;28;1981;-53
2023/01/26 08:28:42;;;;;;;;;;;;;;;2.35;83.97;95275.59;5032801;28;1472;-53
2023/01/26 08:31:10;;;;;;;;;;;;;;;2.31;84.02;95274.97;5033122;28;1032;-53
2023/01/26 08:33:36;;;;;;;;;;;;;;;2.43;83.65;95277.69;5013043;28;1229;-53
2023/01/26 08:36:03;;;;;;;;;;;;;;;2.41;82.79;95275.19;5013073;28;1041;-53
2023/01/26 08:38:30;;;;;;;;;;;;;;;2.42;82.47;95278.66;5013075;28;961;-53
2023/01/26 08:40:57;;;;;;;;;;;;;;;2.53;83.42;95276.94;5013112;28;977;-53
2023/01/26 08:43:23;;;;;;;;;;;;;;;2.54;82.21;95283.06;5013010;28;1233;-53
2023/01/26 08:45:49;;;;;;;;;;;;;;;2.54;82.59;95278.66;5016593;28;1916;-53
2023/01/26 08:48:15;;;;;;;;;;;;;;;2.57;82.06;95274.94;5016735;28;1082;-53
2023/01/26 08:50:41;;;;;;;;;;;;;;;2.63;81.45;95276.28;5016596;28;1037;-52
2023/01/26 08:53:07;;;;;;;;;;;;;;;2.62;81.09;95271.97;5016576;28;1068;-53
2023/01/26 08:55:34;;;;;;;;;;;;;;;2.60;81.32;95273.88;5015190;28;1038;-53
2023/01/26 08:58:00;;;;;;;;;;;;;;;2.62;81.85;95278.09;5021278;28;1340;-53
2023/01/26 09:00:26;;;;;;;;;;;;;;;2.61;81.18;95272.94;5035597;28;1041;-53
2023/01/26 09:03:02;;;;;;;;;;;;;;;2.30;80.96;95268.03;5036015;28;1100;-52
2023/01/26 09:05:32;;;;;;;;;;;;;;;2.30;80.64;95267.19;5036003;28;2350;-52
2023/01/26 09:07:58;;;;;;;;;;;;;;;2.35;81.17;95267.69;5035923;28;1042;-52
2023/01/26 09:10:24;;;;;;;;;;;;;;;2.41;81.73;95251.44;5035517;28;1091;-52
2023/01/26 09:12:50;;;;;;;;;;;;;;;2.50;82.04;95252.56;5036128;28;1002;-52
2023/01/26 09:15:16;;;;;;;;;;;;;;;2.56;81.19;95248.66;5036030;28;1311;-53
2023/01/26 09:17:42;;;;;;;;;;;;;;;2.67;81.29;95244.28;5035940;28;1216;-53
2023/01/26 09:20:10;;;;;;;;;;;;;;;2.73;81.82;95248.25;5035557;28;1211;-53
2023/01/26 09:22:36;;;;;;;;;;;;;;;2.93;80.26;95254.75;5035690;28;977;-52
2023/01/26 09:25:02;;;;;;;;;;;;;;;2.74;79.14;95252.59;5035620;28;1914;-52
2023/01/26 09:27:28;;;;;;;;;;;;;;;2.55;79.61;95253.09;5035726;28;1029;-52
2023/01/26 09:29:54;;;;;;;;;;;;;;;2.54;79.87;95236.41;5035335;28;1046;-53
2023/01/26 09:32:21;;;;;;;;;;;;;;;2.48;80.10;95230.72;5035467;28;1668;-50
2023/01/26 09:34:47;;;;;;;;;;;;;;;2.62;79.98;95227.94;5035274;28;1815;-52
2023/01/26 09:37:13;;;;;;;;;;;;;;;2.85;79.97;95222.78;5035460;28;1886;-52
2023/01/26 09:39:40;;;;;;;;;;;;;;;2.91;80.89;95220.53;5034925;28;1139;-52
2023/01/26 09:42:09;;;;;;;;;;;;;;;2.89;80.03;95221.59;5034922;28;1453;-52
2023/01/26 09:44:43;;;;;;;;;;;;;;;3.01;80.31;95225.13;5034879;28;1887;-52
2023/01/26 09:47:17;;;;;;;;;;;;;;;3.03;79.88;95221.41;5035453;28;1022;-52
2023/01/26 09:49:47;;;;;;;;;;;;;;;3.06;79.78;95223.84;5035227;28;1035;-51
2023/01/26 09:52:13;;;;;;;;;;;;;;;3.04;79.72;95217.00;5035139;28;1029;-52
2023/01/26 09:54:42;;;;;;;;;;;;;;;3.15;79.34;95216.19;5034615;28;1035;-52
2023/01/26 09:57:13;;;;;;;;;;;;;;;3.13;79.58;95211.03;5035054;28;1105;-52
2023/01/26 09:59:39;;;;;;;;;;;;;;;3.05;80.32;95205.47;5034899;28;1049;-52
2023/01/26 10:02:14;;;;;;;;;;;;;;;3.06;79.99;95196.59;5035106;28;962;-52
2023/01/26 10:04:42;;;;;;;;;;;;;;;2.95;81.05;95194.72;5034535;28;2052;-52
2023/01/26 10:07:10;;;;;;;;;;;;;;;2.92;81.86;95184.38;5034834;28;1045;-52
2023/01/26 10:09:37;;;;;;;;;;;;;;;2.95;81.71;95178.88;5034727;28;1030;-52
2023/01/26 10:12:05;;;;;;;;;;;;;;;2.96;81.59;95172.66;5034908;28;977;-52
2023/01/26 10:14:48;;;;;;;;;;;;;;;3.06;81.74;95178.09;5034468;28;1081;-52
2023/01/26 10:17:26;;;;;;;;;;;;;;;3.08;81.20;95162.97;5034650;28;978;-52
2023/01/26 10:19:56;;;;;;;;;;;;;;;3.16;80.73;95171.16;5034595;28;1105;-52
2023/01/26 10:22:34;;;;;;;;;;;;;;;3.12;80.38;95164.41;5034465;28;1054;-52
2023/01/26 10:25:00;;;;;;;;;;;;;;;3.10;80.90;95156.59;5014811;28;1996;-52
2023/01/26 10:27:28;;;;;;;;;;;;;;;3.11;81.09;95146.88;5014582;28;1086;-52
2023/01/26 10:29:54;;;;;;;;;;;;;;;3.11;80.43;95152.16;5014554;28;1085;-53
2023/01/26 10:32:20;;;;;;;;;;;;;;;3.21;80.70;95139.13;5024221;28;1532;-51
2023/01/26 10:34:48;;;;;;;;;;;;;;;3.23;79.38;95126.63;5034073;28;1290;-51
2023/01/26 10:37:22;;;;;;;;;;;;;;;3.20;80.36;95125.03;5034343;28;1559;-51
2023/01/26 10:40:02;;;;;;;;;;;;;;;3.21;80.05;95121.47;5034185;28;1009;-52
2023/01/26 10:42:30;;;;;;;;;;;;;;;3.17;79.97;95109.44;5034085;28;981;-52
2023/01/26 10:44:57;;;;;;;;;;;;;;;3.05;79.63;95100.63;5034036;28;1917;-52
2023/01/26 10:47:24;;;;;;;;;;;;;;;2.84;80.20;95100.44;5034078;28;1041;-51
2023/01/26 10:49:50;;;;;;;;;;;;;;;2.89;81.47;95093.03;5034106;28;1025;-51
2023/01/26 10:52:18;;;;;;;;;;;;;;;2.86;80.21;95085.34;5034119;28;969;-51
2023/01/26 10:54:45;;;;;;;;;;;;;;;2.97;80.63;95081.88;5033695;28;1057;-51
2023/01/26 10:57:21;;;;;;;;;;;;;;;3.06;79.84;95094.41;5033934;28;1196;-52
2023/01/26 10:59:49;;;;;;;;;;;;;;;3.13;79.99;95094.78;5034073;28;1001;-52
2023/01/26 11:02:16;;;;;;;;;;;;;;;3.22;80.29;95080.84;5033887;28;1113;-52
2023/01/26 11:05:02;;;;;;;;;;;;;;;3.33;80.60;95078.22;5033351;28;1910;-52
2023/01/26 11:07:37;;;;;;;;;;;;;;;3.40;78.19;95077.75;5025712;28;1824;-52
2023/01/26 11:10:32;;;;;;;;;;;;;;;3.39;78.95;95070.78;5033767;28;1084;-52
2023/01/26 11:13:24;;;;;;;;;;;;;;;3.38;79.21;95069.94;5024664;28;1290;-51
2023/01/26 11:15:59;;;;;;;;;;;;;;;3.27;78.25;95052.28;5031604;28;2181;-52
2023/01/26 11:18:28;;;;;;;;;;;;;;;3.42;78.23;95046.78;5033655;28;1040;-52
2023/01/26 11:21:00;;;;;;;;;;;;;;;3.55;76.99;95036.03;5033518;28;1080;-52
2023/01/26 11:24:05;;;;;;;;;;;;;;;3.59;77.71;95024.28;5033271;28;1079;-52
2023/01/26 11:26:50;;;;;;;;;;;;;;;3.70;75.44;95030.41;4991741;28;2047;-52
2023/01/26 11:32:45;;;;;;;;;;;;;;;3.49;76.27;95008.28;4997062;28;1170;-53
2023/01/26 11:35:24;;;;;;;;;;;;;;;3.51;77.60;95001.09;5011145;28;1276;-52
2023/01/26 11:37:51;;;;;;;;;;;;;;;3.44;77.40;94997.25;5012374;28;1077;-52
2023/01/26 11:40:33;;;;;;;;;;;;;;;3.25;77.80;94996.06;5013500;28;1113;-52
2023/01/26 11:43:15;;;;;;;;;;;;;;;3.43;77.96;94991.13;5013606;28;989;-52
2023/01/26 11:45:51;;;;;;;;;;;;;;;3.48;78.08;94990.78;5013632;28;1902;-52
2023/01/26 11:48:23;;;;;;;;;;;;;;;3.52;76.73;94971.88;5013623;28;1566;-52
2023/01/26 11:50:55;;;;;;;;;;;;;;;3.35;76.03;94969.75;5013611;28;1009;-51
2023/01/26 11:53:27;;;;;;;;;;;;;;;3.29;77.90;94976.34;5015036;28;1258;-51
2023/01/26 11:55:56;;;;;;;;;;;;;;;3.32;78.11;94968.19;5033455;28;1049;-51
2023/01/26 11:58:37;;;;;;;;;;;;;;;3.51;77.88;94961.47;5033096;28;1054;-51
2023/01/26 12:01:17;;;;;;;;;;;;;;;3.54;76.77;94969.13;5033144;28;1041;-51
2023/01/26 12:03:46;;;;;;;;;;;;;;;3.61;76.72;94965.03;5033024;28;1111;-51
2023/01/26 12:06:17;;;;;;;;;;;;;;;3.59;76.61;94971.41;5033107;28;1906;-52
2023/01/26 12:08:57;;;;;;;;;;;;;;;3.66;76.31;94968.16;5033312;28;982;-52
2023/01/26 12:11:28;;;;;;;;;;;;;;;3.57;76.85;94960.13;5033059;28;1061;-52
2023/01/26 12:14:04;;;;;;;;;;;;;;;3.64;75.09;94966.59;5032924;28;1151;-52
2023/01/26 12:16:49;;;;;;;;;;;;;;;3.65;75.26;94963.00;5032964;28;1056;-52
2023/01/26 12:19:33;;;;;;;;;;;;;;;3.70;75.13;94960.81;5036198;28;1026;-52
2023/01/26 12:22:04;;;;;;;;;;;;;;;3.61;76.52;94958.91;5036836;28;1062;-52
2023/01/26 12:24:35;;;;;;;;;;;;;;;3.56;77.19;94953.97;5036540;28;1906;-52
2023/01/26 12:27:03;;;;;;;;;;;;;;;3.50;77.28;94947.38;5036730;28;1136;-51
2023/01/26 12:29:39;;;;;;;;;;;;;;;3.52;77.49;94934.88;5036822;28;1037;-52
2023/01/26 12:32:13;;;;;;;;;;;;;;;3.55;77.08;94932.94;5036743;28;1601;-52
2023/01/26 12:34:39;;;;;;;;;;;;;;;3.59;76.58;94919.38;5036250;28;1097;-53
2023/01/26 12:37:29;;;;;;;;;;;;;;;3.61;75.61;94921.91;5036614;28;1045;-53
2023/01/26 12:40:34;;;;;;;;;;;;;;;3.58;74.56;94911.56;5036828;28;1057;-53
2023/01/26 12:43:05;;;;;;;;;;;;;;;3.65;73.95;94913.59;4994874;28;1072;-53
2023/01/26 12:45:35;;;;;;;;;;;;;;;3.66;74.54;94906.47;4994541;28;1935;-53
2023/01/26 12:48:25;;;;;;;;;;;;;;;3.62;75.08;94902.41;5007846;28;1066;-54
2023/01/26 12:51:07;;;;;;;;;;;;;;;3.52;75.83;94908.44;5030903;28;1467;-53
2023/01/26 12:53:39;;;;;;;;;;;;;;;3.56;76.63;94909.03;5036076;28;1359;-53
2023/01/26 12:56:28;;;;;;;;;;;;;;;3.58;76.35;94914.22;5036334;28;1000;-54
2023/01/26 12:58:56;;;;;;;;;;;;;;;3.57;76.22;94908.09;5030644;28;1434;-52
2023/01/26 13:01:24;;;;;;;;;;;;;;;3.65;76.30;94913.59;5036241;28;1033;-52
2023/01/26 13:03:57;;;;;;;;;;;;;;;3.60;77.31;94917.56;5035908;28;1348;-52
2023/01/26 13:06:25;;;;;;;;;;;;;;;3.57;77.04;94905.44;5035979;28;1910;-52
2023/01/26 13:08:58;;;;;;;;;;;;;;;3.41;76.71;94897.91;5036035;28;1036;-52
2023/01/26 13:11:44;;;;;;;;;;;;;;;3.44;77.26;94891.53;5035908;28;1112;-54
2023/01/26 13:14:28;;;;;;;;;;;;;;;3.43;76.05;94892.50;5035792;28;1207;-52
2023/01/26 13:16:55;;;;;;;;;;;;;;;3.46;76.80;94886.97;5035774;28;1209;-52
2023/01/26 13:19:40;;;;;;;;;;;;;;;3.37;76.36;94888.53;5035679;28;898;-51
2023/01/26 13:22:26;;;;;;;;;;;;;;;3.36;77.57;94886.00;5035792;28;1053;-51
2023/01/26 13:24:55;;;;;;;;;;;;;;;3.37;77.13;94880.59;5028392;28;2001;-51
2023/01/26 13:27:40;;;;;;;;;;;;;;;3.51;77.15;94879.50;5035568;28;1046;-51
2023/01/26 13:30:21;;;;;;;;;;;;;;;3.51;77.88;94884.81;5035141;28;994;-51
2023/01/26 13:32:47;;;;;;;;;;;;;;;3.56;76.20;94881.78;5035677;28;1632;-51
2023/01/26 13:35:15;;;;;;;;;;;;;;;3.55;76.22;94888.00;5034023;28;1169;-51
2023/01/26 13:38:01;;;;;;;;;;;;;;;3.54;77.04;94889.81;5035426;28;1038;-51
2023/01/26 13:40:32;;;;;;;;;;;;;;;3.54;77.09;94886.34;5035616;28;1117;-51
2023/01/26 13:43:01;;;;;;;;;;;;;;;3.47;77.25;94876.28;5035541;28;966;-52
2023/01/26 13:45:32;;;;;;;;;;;;;;;3.45;75.41;94878.22;5035133;28;1985;-51
2023/01/26 13:47:59;;;;;;;;;;;;;;;3.44;77.09;94878.31;5035307;28;1127;-52
2023/01/26 13:50:28;;;;;;;;;;;;;;;3.47;77.15;94884.22;5035170;28;966;-52
2023/01/26 13:52:54;;;;;;;;;;;;;;;3.51;75.89;94876.88;5035187;28;1057;-52
2023/01/26 13:55:22;;;;;;;;;;;;;;;3.49;76.04;94873.47;5034984;28;1216;-52
2023/01/26 13:57:49;;;;;;;;;;;;;;;3.46;76.21;94868.47;5035273;28;1005;-52
2023/01/26 14:00:15;;;;;;;;;;;;;;;3.43;76.26;94861.59;5035189;28;993;-52
2023/01/26 14:02:46;;;;;;;;;;;;;;;3.50;76.96;94861.97;5035011;28;1056;-52
2023/01/26 14:05:20;;;;;;;;;;;;;;;3.51;77.04;94864.50;5034543;28;1902;-52
2023/01/26 14:07:46;;;;;;;;;;;;;;;3.66;75.61;94864.19;5035083;28;965;-52